Time;durP1;ratioP1;P1;durP2;ratioP2;P2;SDS_P1;SDS_P2;PMS_P1;PMS_P2;Temp;Humidity;BMP_temperature;BMP_pressure;BME280_temperature;BME280_humidity;BME280_pressure;Samples;Min_cycle;Max_cycle;Signal;HPM_P1;HPM_P2
2023/08/19 00:01:15;;;;;;;3.67;3.00;;;;;;;21.37;100.00;101116.34;5055732;28;20025;-86
2023/08/19 00:03:41;;;;;;;3.83;3.20;;;;;;;21.37;100.00;101118.97;5055114;28;20029;-87
2023/08/19 00:06:09;;;;;;;3.97;3.13;;;;;;;21.33;100.00;101109.50;5055382;28;20159;-87
2023/08/19 00:08:35;;;;;;;4.10;3.30;;;;;;;21.28;100.00;101107.13;5055794;28;20025;-87
2023/08/19 00:11:02;;;;;;;4.10;3.30;;;;;;;21.29;100.00;101107.97;5055215;28;20028;-87
2023/08/19 00:13:39;;;;;;;;;;;;;;;21.29;100.00;101114.13;5055987;28;20024;-87
2023/08/19 00:16:04;;;;;;;3.88;3.22;;;;;;;21.19;100.00;101090.97;5055130;28;20277;-86
2023/08/19 00:18:30;;;;;;;3.50;3.00;;;;;;;21.23;100.00;101103.88;5054568;28;20033;-86
2023/08/19 00:20:55;;;;;;;4.97;3.63;;;;;;;21.23;100.00;101106.53;5055497;28;20048;-86
2023/08/19 00:23:24;;;;;;;4.00;3.30;;;;;;;21.22;100.00;101115.38;5054844;28;20226;-87
2023/08/19 00:25:49;;;;;;;5.00;3.65;;;;;;;21.21;100.00;101112.84;5061992;22;20091;-86
2023/08/19 00:28:18;;;;;;;5.07;3.90;;;;;;;21.22;100.00;101109.28;5054775;28;20094;-86
2023/08/19 00:30:46;;;;;;;4.78;3.70;;;;;;;21.21;100.00;101107.56;5052118;28;20052;-87
2023/08/19 00:33:12;;;;;;;3.97;3.33;;;;;;;21.17;100.00;101108.69;5054278;28;20055;-86
2023/08/19 00:35:39;;;;;;;3.43;2.90;;;;;;;21.16;100.00;101107.81;5054626;28;20061;-86
2023/08/19 00:38:04;;;;;;;5.60;3.55;;;;;;;21.14;100.00;101107.91;5053742;28;20025;-86
2023/08/19 00:40:29;;;;;;;4.67;3.47;;;;;;;21.10;100.00;101106.38;5055223;28;20021;-87
2023/08/19 00:42:55;;;;;;;3.53;3.17;;;;;;;21.10;100.00;101106.38;5055201;28;20024;-86
2023/08/19 00:45:20;;;;;;;5.07;3.63;;;;;;;21.12;100.00;101108.91;5053752;28;20029;-86
2023/08/19 00:47:46;;;;;;;4.37;3.50;;;;;;;21.04;100.00;101098.81;5054694;28;20044;-87
2023/08/19 00:50:24;;;;;;;4.40;3.40;;;;;;;21.10;100.00;101110.81;5054299;28;20036;-86
2023/08/19 00:52:50;;;;;;;5.40;3.90;;;;;;;21.08;100.00;101108.25;5053890;28;20275;-87
2023/08/19 00:55:15;;;;;;;5.18;3.67;;;;;;;21.09;100.00;101111.75;5054695;28;20025;-87
2023/08/19 00:57:41;;;;;;;5.10;3.70;;;;;;;21.00;100.00;101099.91;5054663;28;20434;-87
2023/08/19 01:00:07;;;;;;;4.53;3.47;;;;;;;20.99;100.00;101103.47;5054040;28;20028;-86
2023/08/19 01:02:32;;;;;;;5.28;3.55;;;;;;;20.99;100.00;101098.22;5036323;28;20025;-87
2023/08/19 01:04:58;;;;;;;4.70;3.70;;;;;;;20.97;100.00;101102.72;5054310;28;20489;-87
2023/08/19 01:07:35;;;;;;;4.25;3.30;;;;;;;20.93;100.00;101096.75;5053529;28;20589;-86
2023/08/19 01:10:31;;;;;;;4.40;3.53;;;;;;;20.91;100.00;101101.25;5054717;28;20045;-87
2023/08/19 01:13:00;;;;;;;4.35;3.50;;;;;;;20.86;100.00;101094.53;5054726;28;20037;-87
2023/08/19 01:15:29;;;;;;;3.88;3.30;;;;;;;20.79;100.00;101089.59;5054103;28;20025;-87
2023/08/19 01:17:56;;;;;;;3.95;3.35;;;;;;;20.80;100.00;101093.94;5054348;28;20480;-87
2023/08/19 01:20:23;;;;;;;3.75;3.00;;;;;;;20.78;100.00;101089.66;5053747;28;20059;-86
2023/08/19 01:23:35;;;;;;;3.50;3.10;;;;;;;20.79;100.00;101099.28;5054181;28;20046;-87
2023/08/19 01:26:00;;;;;;;4.70;3.60;;;;;;;20.73;100.00;101089.88;4953735;29;20098;-87
2023/08/19 01:28:26;;;;;;;3.90;3.30;;;;;;;20.72;100.00;101075.00;4953086;29;20031;-87
2023/08/19 01:30:51;;;;;;;4.90;3.60;;;;;;;20.78;100.00;101089.66;5005116;28;20120;-86
2023/08/19 01:33:17;;;;;;;4.60;3.60;;;;;;;20.77;100.00;101077.44;5059841;22;20136;-86
2023/08/19 01:35:57;;;;;;;4.93;3.60;;;;;;;20.80;100.00;101077.25;5053384;28;20025;-87
2023/08/19 01:38:50;;;;;;;4.95;3.85;;;;;;;20.82;100.00;101075.38;5054459;28;20468;-86
2023/08/19 01:41:17;;;;;;;4.10;3.40;;;;;;;20.82;100.00;101067.47;5053328;28;20017;-86
2023/08/19 01:43:44;;;;;;;4.15;3.30;;;;;;;20.83;100.00;101063.91;5054057;28;20029;-87
2023/08/19 01:46:10;;;;;;;;;;;;;;;20.83;100.00;101069.19;5054292;28;20107;-86
2023/08/19 01:48:35;;;;;;;3.55;3.10;;;;;;;20.83;100.00;101064.75;5053005;28;20047;-87
2023/08/19 01:51:00;;;;;;;4.33;3.40;;;;;;;20.80;100.00;101051.75;5053915;28;20055;-87
2023/08/19 01:53:38;;;;;;;4.30;3.50;;;;;;;20.77;100.00;101049.28;5053464;28;20473;-86
2023/08/19 01:56:03;;;;;;;3.65;3.10;;;;;;;20.88;100.00;101058.38;5032872;28;20060;-86
2023/08/19 01:58:28;;;;;;;3.80;3.20;;;;;;;20.88;100.00;101055.75;5033779;28;20025;-87
2023/08/19 02:00:54;;;;;;;3.77;3.13;;;;;;;20.86;100.00;101049.69;5033838;28;20113;-86
2023/08/19 02:03:19;;;;;;;4.57;3.47;;;;;;;20.89;100.00;101054.81;5032877;28;20021;-87
2023/08/19 02:05:56;;;;;;;4.60;3.50;;;;;;;20.91;100.00;101055.56;5033726;28;20028;-87
2023/08/19 02:08:22;;;;;;;3.97;3.10;;;;;;;20.83;100.00;101042.81;5033624;28;20025;-87
2023/08/19 02:10:47;;;;;;;4.03;3.23;;;;;;;20.94;100.00;101053.63;5033026;28;20099;-86
2023/08/19 02:13:12;;;;;;;3.90;3.20;;;;;;;20.88;100.00;101038.13;5033365;28;20122;-86
2023/08/19 02:15:38;;;;;;;4.40;3.20;;;;;;;20.94;100.00;101050.97;5033904;28;20017;-87
2023/08/19 02:18:09;;;;;;;3.57;3.00;;;;;;;20.96;100.00;101051.75;5031827;28;20490;-87
2023/08/19 02:20:37;;;;;;;3.53;2.83;;;;;;;20.88;100.00;101040.78;5033645;28;20408;-86
2023/08/19 02:23:03;;;;;;;2.70;2.50;;;;;;;20.94;100.00;101047.50;5033431;28;20029;-86
2023/08/19 02:25:28;;;;;;;2.80;2.53;;;;;;;20.93;100.00;101043.16;5032880;28;20080;-86
2023/08/19 02:27:54;;;;;;;2.70;2.50;;;;;;;20.96;100.00;101040.31;5033054;28;20478;-87
2023/08/19 02:30:22;;;;;;;2.67;2.47;;;;;;;20.96;100.00;101035.03;5033085;28;20025;-87
2023/08/19 02:32:50;;;;;;;2.70;2.50;;;;;;;20.97;100.00;101034.97;5032506;28;20037;-87
2023/08/19 02:35:17;;;;;;;2.90;2.60;;;;;;;20.98;100.00;101027.91;5043412;28;20024;-86
2023/08/19 02:37:43;;;;;;;2.97;2.67;;;;;;;21.00;100.00;101030.47;5052436;28;20028;-86
2023/08/19 02:40:09;;;;;;;2.77;2.47;;;;;;;20.96;100.00;101014.81;5052962;28;20358;-87
2023/08/19 02:42:35;;;;;;;;;;;;;;;21.00;100.00;101025.19;5053319;28;20540;-86
2023/08/19 02:45:00;;;;;;;;;;;;;;;21.00;100.00;101030.47;5052489;28;20007;-86
2023/08/19 02:47:25;;;;;;;4.97;3.33;;;;;;;20.98;100.00;101026.13;5052221;28;20007;-86
2023/08/19 02:49:51;;;;;;;4.80;3.47;;;;;;;21.00;100.00;101020.75;5052756;28;20368;-86
2023/08/19 02:52:16;;;;;;;4.97;3.67;;;;;;;21.03;100.00;101022.38;5042057;28;20096;-87
2023/08/19 02:54:53;;;;;;;4.77;3.60;;;;;;;21.02;100.00;101020.66;5052544;28;20057;-86
2023/08/19 02:57:19;;;;;;;5.25;3.83;;;;;;;21.01;100.00;101011.91;5051024;28;20033;-86
2023/08/19 02:59:44;;;;;;;4.73;3.77;;;;;;;21.08;100.00;101031.72;5051677;28;20021;-87
2023/08/19 03:02:09;;;;;;;3.60;3.20;;;;;;;21.06;100.00;101020.41;5052905;28;20469;-87
2023/08/19 03:04:35;;;;;;;4.60;3.53;;;;;;;21.04;100.00;101006.47;5052996;28;20473;-87
2023/08/19 03:07:00;;;;;;;4.03;3.10;;;;;;;21.10;100.00;101016.66;5051937;28;20021;-87
2023/08/19 03:09:25;;;;;;;3.77;3.30;;;;;;;21.10;100.00;101010.53;5052391;28;20032;-87
2023/08/19 03:11:51;;;;;;;4.40;3.50;;;;;;;21.12;100.00;101014.78;5052356;28;20021;-87
2023/08/19 03:14:16;;;;;;;4.13;3.30;;;;;;;21.16;100.00;101020.72;5051703;28;20060;-86
2023/08/19 03:16:50;;;;;;;5.23;3.83;;;;;;;21.16;100.00;101020.72;5044807;28;20037;-86
2023/08/19 03:19:16;;;;;;;6.35;4.18;;;;;;;21.22;100.00;101027.44;5051948;28;20359;-87
2023/08/19 03:21:41;;;;;;;5.60;3.50;;;;;;;21.21;100.00;101023.97;5051522;28;20027;-87
2023/08/19 03:24:07;;;;;;;4.43;3.13;;;;;;;21.13;100.00;101007.72;5052195;28;20021;-86
2023/08/19 03:26:32;;;;;;;4.00;3.40;;;;;;;21.20;100.00;101016.13;5052465;28;20028;-86
2023/08/19 03:29:13;;;;;;;4.93;3.80;;;;;;;21.14;100.00;101001.50;5051665;28;20305;-87
2023/08/19 03:31:38;;;;;;;3.60;3.20;;;;;;;21.13;100.00;101005.94;5052122;28;20025;-87
2023/08/19 03:34:04;;;;;;;3.57;3.10;;;;;;;21.14;100.00;101007.63;5050613;28;20134;-86
2023/08/19 03:36:29;;;;;;;3.33;3.00;;;;;;;21.16;100.00;101012.81;5052188;28;20108;-86
2023/08/19 03:38:54;;;;;;;4.37;3.50;;;;;;;21.13;100.00;101005.06;5052556;28;20037;-87
2023/08/19 03:41:35;;;;;;;4.67;3.80;;;;;;;21.18;100.00;101016.22;5051461;28;20473;-87
2023/08/19 03:44:00;;;;;;;6.38;4.68;;;;;;;21.19;100.00;101014.41;5052401;28;20481;-86
2023/08/19 03:46:25;;;;;;;5.53;4.20;;;;;;;21.12;100.00;101006.88;5051998;28;20040;-87
2023/08/19 03:48:51;;;;;;;4.80;4.00;;;;;;;21.16;100.00;101014.63;5051465;28;20063;-87
2023/08/19 03:51:16;;;;;;;4.40;3.60;;;;;;;21.19;100.00;101022.34;5051754;28;20035;-86
2023/08/19 03:53:53;;;;;;;4.20;3.37;;;;;;;21.22;100.00;101025.66;5052082;28;20032;-86
2023/08/19 03:56:18;;;;;;;4.20;3.45;;;;;;;21.24;100.00;101018.50;5051144;28;20025;-87
2023/08/19 03:58:46;;;;;;;4.77;3.90;;;;;;;21.17;100.00;101008.41;5052129;28;20024;-87
2023/08/19 04:01:11;;;;;;;4.47;3.63;;;;;;;21.21;100.00;101015.19;5051940;28;20017;-87
2023/08/19 04:03:37;;;;;;;3.93;3.53;;;;;;;21.26;100.00;101021.06;5051658;28;20481;-87
2023/08/19 04:06:02;;;;;;;5.77;4.23;;;;;;;21.23;100.00;101015.97;5052174;28;20524;-86
2023/08/19 04:08:29;;;;;;;4.63;3.70;;;;;;;21.16;100.00;101014.63;5040870;28;20047;-87
2023/08/19 04:11:07;;;;;;;4.03;3.17;;;;;;;21.23;100.00;101029.16;5031643;28;20458;-87
2023/08/19 04:13:32;;;;;;;3.78;3.38;;;;;;;21.21;100.00;101017.81;5036940;28;20109;-87
2023/08/19 04:16:05;;;;;;;4.97;3.93;;;;;;;21.23;100.00;101032.63;5055250;28;20041;-86
2023/08/19 04:18:43;;;;;;;4.03;3.45;;;;;;;21.23;100.00;101021.22;5055777;28;20112;-87
2023/08/19 04:21:09;;;;;;;4.28;3.40;;;;;;;21.13;100.00;101007.72;5054615;28;20033;-86
2023/08/19 04:23:35;;;;;;;4.55;3.42;;;;;;;21.17;100.00;101022.44;5054968;28;20082;-86
2023/08/19 04:26:00;;;;;;;3.58;3.20;;;;;;;21.22;100.00;101032.72;5038407;28;20049;-86
2023/08/19 04:28:26;;;;;;;3.33;3.03;;;;;;;21.21;100.00;101034.53;5035069;28;20592;-86
2023/08/19 04:30:53;;;;;;;3.00;2.70;;;;;;;21.17;100.00;101025.06;5034706;28;20029;-86
2023/08/19 04:33:18;;;;;;;3.08;2.78;;;;;;;21.14;100.00;101022.59;5034908;28;20045;-86
2023/08/19 04:35:45;;;;;;;2.80;2.60;;;;;;;21.18;100.00;101033.84;5034871;28;20488;-86
2023/08/19 04:38:11;;;;;;;2.70;2.50;;;;;;;21.17;100.00;101034.78;5034143;28;20053;-86
2023/08/19 04:40:36;;;;;;;2.13;2.00;;;;;;;21.16;100.00;101028.66;5035236;28;20029;-86
2023/08/19 04:43:02;;;;;;;2.60;2.40;;;;;;;21.15;100.00;101034.88;5035116;28;20040;-87
2023/08/19 04:45:27;;;;;;;2.35;2.15;;;;;;;21.17;100.00;101040.91;5034412;28;20030;-87
2023/08/19 04:47:53;;;;;;;2.40;2.20;;;;;;;21.17;100.00;101048.81;5034952;28;20107;-86
2023/08/19 04:50:21;;;;;;;2.40;2.20;;;;;;;21.18;100.00;101047.03;5034724;28;20024;-86
2023/08/19 04:52:46;;;;;;;2.50;2.30;;;;;;;21.09;100.00;101029.94;5034575;28;20025;-86
2023/08/19 04:55:12;;;;;;;2.53;2.33;;;;;;;21.17;100.00;101040.06;5034825;28;20025;-86
2023/08/19 04:57:38;;;;;;;2.20;2.10;;;;;;;21.14;100.00;101031.38;5035004;28;20033;-87
2023/08/19 05:00:05;;;;;;;2.78;2.30;;;;;;;21.17;100.00;101040.06;5033824;28;20504;-86
2023/08/19 05:02:33;;;;;;;2.85;2.55;;;;;;;21.14;100.00;101023.47;5035368;28;20021;-86
2023/08/19 05:05:01;;;;;;;5.55;3.25;;;;;;;21.18;100.00;101028.56;5034917;28;20017;-86
2023/08/19 05:07:38;;;;;;;4.72;3.60;;;;;;;21.22;100.00;101033.56;5033532;28;20068;-86
2023/08/19 05:10:04;;;;;;;4.57;3.55;;;;;;;21.20;100.00;101030.19;5034539;28;20037;-86
2023/08/19 05:12:29;;;;;;;3.10;2.80;;;;;;;21.22;100.00;101030.09;5034063;28;20064;-87
2023/08/19 05:14:55;;;;;;;5.07;3.40;;;;;;;21.27;100.00;101038.59;5034808;28;20467;-87
2023/08/19 05:17:35;;;;;;;3.70;2.97;;;;;;;21.29;100.00;101042.84;5034310;28;20355;-86
2023/08/19 05:20:04;;;;;;;3.10;2.70;;;;;;;21.25;100.00;101029.91;5033864;28;20083;-87
2023/08/19 05:22:29;;;;;;;4.25;2.90;;;;;;;21.33;100.00;101040.03;5034157;28;20112;-86
2023/08/19 05:24:55;;;;;;;4.23;3.40;;;;;;;21.36;100.00;101034.56;5034371;28;20101;-86
2023/08/19 05:27:20;;;;;;;5.50;3.60;;;;;;;21.38;100.00;101046.75;5033546;28;20120;-86
2023/08/19 05:32:29;;;;;;;3.35;3.00;;;;;;;21.44;100.00;101051.66;5034239;28;20045;-85
2023/08/19 05:34:55;;;;;;;3.30;2.70;;;;;;;21.44;100.00;101051.66;5033576;28;20037;-86
2023/08/19 05:37:20;;;;;;;2.67;2.47;;;;;;;21.47;100.00;101055.06;5034241;28;20032;-86
2023/08/19 05:39:46;;;;;;;3.20;2.80;;;;;;;21.50;100.00;101054.91;5033948;28;20025;-86
2023/08/19 05:42:12;;;;;;;2.50;2.30;;;;;;;21.51;100.00;101051.31;5033404;28;20033;-86
2023/08/19 05:44:40;;;;;;;2.95;2.65;;;;;;;21.53;100.00;101060.00;5034384;28;20473;-87
2023/08/19 05:47:17;;;;;;;2.88;2.60;;;;;;;21.45;100.00;101042.81;5034028;28;20025;-88
2023/08/19 05:49:43;;;;;;;3.03;2.72;;;;;;;21.52;100.00;101050.38;5033754;28;20022;-91
2023/08/19 05:52:08;;;;;;;3.13;2.83;;;;;;;21.56;100.00;101055.38;5034654;28;20033;-89
2023/08/19 05:54:33;;;;;;;3.23;2.80;;;;;;;21.54;100.00;101049.34;5034789;28;20079;-91
2023/08/19 05:57:14;;;;;;;3.63;3.10;;;;;;;21.55;100.00;101050.19;5034739;28;20052;-88
2023/08/19 05:59:40;;;;;;;4.35;3.40;;;;;;;21.57;100.00;101043.03;5034257;28;20017;-84
2023/08/19 06:02:06;;;;;;;6.33;3.83;;;;;;;21.66;100.00;101050.44;5032205;28;20036;-83
2023/08/19 06:04:31;;;;;;;4.97;3.60;;;;;;;21.68;100.00;101061.78;5033687;28;20120;-87
2023/08/19 06:06:57;;;;;;;5.10;3.57;;;;;;;21.70;100.00;101067.81;5034604;28;20394;-84
2023/08/19 06:09:22;;;;;;;3.53;3.22;;;;;;;21.74;100.00;101074.59;5032994;28;20112;-85
2023/08/19 06:11:50;;;;;;;5.40;3.70;;;;;;;21.76;100.00;101077.19;5034051;28;20179;-85
2023/08/19 06:14:16;;;;;;;3.83;3.30;;;;;;;21.79;100.00;101076.13;5034401;28;20104;-84
2023/08/19 06:16:42;;;;;;;4.00;2.90;;;;;;;21.85;100.00;101075.75;5052081;28;20150;-84
2023/08/19 06:19:07;;;;;;;;;;;;;;;21.89;100.00;101075.53;5053486;28;20041;-85
2023/08/19 06:21:33;;;;;;;;;;;;;;;21.93;100.00;101086.75;5054144;28;19924;-85
2023/08/19 06:23:58;;;;;;;4.37;3.47;;;;;;;21.94;100.00;101074.38;5052897;28;19995;-85
2023/08/19 06:26:25;;;;;;;5.20;3.53;;;;;;;21.99;100.00;101082.88;5053575;28;20504;-85
2023/08/19 06:28:50;;;;;;;4.78;3.28;;;;;;;22.01;100.00;101081.00;5053328;28;20036;-85
2023/08/19 06:31:16;;;;;;;3.10;2.80;;;;;;;22.05;100.00;101090.44;5052321;28;20020;-85
2023/08/19 06:33:42;;;;;;;3.17;2.88;;;;;;;22.09;100.00;101088.44;5051133;28;20041;-85
2023/08/19 06:36:10;;;;;;;3.30;3.00;;;;;;;22.13;100.00;101096.09;5032954;28;20037;-85
2023/08/19 06:38:41;;;;;;;3.28;2.90;;;;;;;22.18;100.00;101098.50;5032467;28;20029;-85
2023/08/19 06:41:10;;;;;;;3.40;2.85;;;;;;;22.28;100.00;101104.06;5033410;28;20029;-85
2023/08/19 06:43:37;;;;;;;3.85;3.15;;;;;;;22.38;100.00;101102.56;5033130;28;20040;-85
2023/08/19 06:46:06;;;;;;;3.10;2.80;;;;;;;22.53;100.00;101108.72;5033501;28;20033;-87
2023/08/19 06:48:32;;;;;;;3.00;2.70;;;;;;;22.67;100.00;101114.00;5033565;28;20029;-88
2023/08/19 06:51:00;;;;;;;2.50;2.30;;;;;;;22.82;100.00;101119.28;5032201;28;20029;-87
2023/08/19 06:53:26;;;;;;;5.05;3.35;;;;;;;22.91;100.00;101120.53;5032628;28;20037;-88
2023/08/19 06:56:12;;;;;;;3.10;2.80;;;;;;;22.97;100.00;101115.66;5032210;28;20021;-88
2023/08/19 06:58:42;;;;;;;3.95;3.03;;;;;;;23.00;100.00;101117.28;5032268;28;20108;-90
2023/08/19 07:01:14;;;;;;;4.55;3.40;;;;;;;23.04;100.00;101129.38;5032732;28;20041;-84
2023/08/19 07:03:39;;;;;;;3.40;3.10;;;;;;;23.30;100.00;101124.22;5048914;28;20021;-84
2023/08/19 07:06:07;;;;;;;5.83;4.00;;;;;;;23.50;100.00;101125.59;5051648;28;20374;-85
2023/08/19 07:08:35;;;;;;;4.57;3.50;;;;;;;23.47;100.00;101130.25;5052882;28;20349;-85
2023/08/19 07:11:01;;;;;;;4.00;3.20;;;;;;;23.42;100.00;101131.38;5052542;28;20017;-85
2023/08/19 07:13:28;;;;;;;4.00;3.20;;;;;;;23.35;99.60;101130.09;5051836;28;20079;-92
2023/08/19 07:16:00;;;;;;;7.57;4.00;;;;;;;23.43;99.46;101129.56;5052652;28;20496;-82
2023/08/19 07:18:27;;;;;;;6.22;4.32;;;;;;;24.35;99.29;101129.66;5052342;28;20029;-83
2023/08/19 07:20:55;;;;;;;7.32;4.60;;;;;;;24.98;97.11;101121.78;5051798;28;20108;-85
2023/08/19 07:23:23;;;;;;;5.85;4.10;;;;;;;25.35;96.13;101126.19;5052886;28;20390;-91
2023/08/19 07:25:50;;;;;;;5.22;4.20;;;;;;;25.64;94.21;101132.03;5053627;28;20055;-90
2023/08/19 07:28:17;;;;;;;4.75;3.90;;;;;;;25.87;90.59;101135.59;5053272;28;20377;-89
2023/08/19 07:30:43;;;;;;;5.65;4.03;;;;;;;25.97;91.48;101134.91;5044819;28;20022;-90
2023/08/19 07:33:11;;;;;;;5.63;4.40;;;;;;;25.99;90.40;101131.19;5033077;28;20045;-90
2023/08/19 07:35:40;;;;;;;6.45;4.80;;;;;;;25.92;86.05;101143.22;5033461;28;20049;-92
2023/08/19 07:38:06;;;;;;;7.53;4.93;;;;;;;25.66;86.26;101123.94;5033423;28;20389;-89
2023/08/19 07:40:32;;;;;;;6.68;4.90;;;;;;;25.61;90.30;101164.16;5033312;28;20104;-91
2023/08/19 07:42:57;;;;;;;5.80;4.45;;;;;;;25.58;91.03;101162.56;5033542;28;20022;-90
2023/08/19 07:45:22;;;;;;;7.18;4.32;;;;;;;25.51;88.66;101168.44;5034441;28;20034;-91
2023/08/19 07:47:48;;;;;;;6.33;4.70;;;;;;;25.50;89.65;101180.03;5037728;28;20458;-91
2023/08/19 07:50:13;;;;;;;6.75;4.80;;;;;;;25.49;90.66;101181.00;5037619;28;20022;-90
2023/08/19 07:52:39;;;;;;;5.97;4.30;;;;;;;25.49;89.61;101162.41;5038047;28;20148;-91
2023/08/19 07:55:05;;;;;;;5.10;4.23;;;;;;;25.52;91.00;101175.47;5037178;28;20036;-90
2023/08/19 07:57:30;;;;;;;5.13;3.97;;;;;;;25.54;90.27;101174.38;5037141;28;20276;-89
2023/08/19 07:59:55;;;;;;;4.23;3.70;;;;;;;25.56;88.87;101180.44;5053150;28;20094;-89
2023/08/19 08:02:21;;;;;;;4.33;3.80;;;;;;;25.53;90.84;101190.44;5043430;28;20029;-89
2023/08/19 08:04:46;;;;;;;5.70;4.03;;;;;;;25.43;90.44;101180.50;5036708;28;20100;-90
2023/08/19 08:07:11;;;;;;;3.97;3.33;;;;;;;25.40;91.60;101174.50;5036167;28;20405;-89
2023/08/19 08:09:38;;;;;;;3.77;3.37;;;;;;;25.36;91.73;101165.09;5036553;28;20100;-90
2023/08/19 08:12:04;;;;;;;3.53;3.10;;;;;;;25.36;91.88;101165.91;5036956;28;20588;-89
2023/08/19 08:14:29;;;;;;;3.30;3.00;;;;;;;25.35;92.30;101174.84;5035966;28;20025;-86
2023/08/19 08:16:56;;;;;;;3.38;2.97;;;;;;;25.35;92.66;101179.31;5035076;28;20458;-89
2023/08/19 08:19:25;;;;;;;3.20;2.90;;;;;;;25.33;93.21;101190.06;5035566;28;20060;-87
2023/08/19 08:21:50;;;;;;;3.55;3.10;;;;;;;25.29;92.71;101180.63;5035770;28;20024;-88
2023/08/19 08:24:15;;;;;;;2.60;2.40;;;;;;;25.27;93.16;101182.53;5034857;28;20029;-88
2023/08/19 08:26:41;;;;;;;3.60;3.30;;;;;;;25.16;92.87;101182.47;5041905;28;20025;-88
2023/08/19 08:29:06;;;;;;;3.20;2.90;;;;;;;25.13;93.05;101195.00;5055187;28;20036;-88
2023/08/19 08:31:31;;;;;;;3.00;2.70;;;;;;;25.10;93.50;101202.34;5055864;28;20031;-88
2023/08/19 08:33:57;;;;;;;3.00;2.70;;;;;;;25.08;93.49;101213.06;5055372;28;20049;-83
2023/08/19 08:36:28;;;;;;;4.03;3.40;;;;;;;25.04;92.59;101216.91;5052495;28;20043;-84
2023/08/19 08:38:53;;;;;;;3.72;3.30;;;;;;;25.01;92.89;101217.09;5048720;28;20516;-83
2023/08/19 08:41:19;;;;;;;7.40;4.23;;;;;;;24.96;90.75;101205.97;5050228;28;20033;-84
2023/08/19 08:43:47;;;;;;;4.50;3.80;;;;;;;24.89;93.07;101234.75;5054163;28;20385;-86
2023/08/19 08:46:14;;;;;;;3.97;3.40;;;;;;;24.91;92.95;101229.34;5054616;28;20040;-87
2023/08/19 08:48:42;;;;;;;4.13;3.50;;;;;;;24.86;92.97;101239.44;5054658;28;20136;-88
2023/08/19 08:51:09;;;;;;;4.30;3.63;;;;;;;24.80;93.09;101230.09;5054023;28;20033;-89
2023/08/19 08:53:34;;;;;;;3.63;3.25;;;;;;;24.80;92.88;101235.41;5055131;28;20029;-88
2023/08/19 08:56:01;;;;;;;4.40;3.40;;;;;;;24.79;93.77;101231.88;5055235;28;20107;-88
2023/08/19 08:58:26;;;;;;;3.47;3.17;;;;;;;24.78;94.07;101234.66;5044356;28;20029;-89
2023/08/19 09:00:53;;;;;;;3.10;2.83;;;;;;;24.79;94.42;101244.31;5055025;28;20035;-87
2023/08/19 09:03:24;;;;;;;2.70;2.50;;;;;;;24.81;94.37;101253.03;5054614;28;20450;-88
2023/08/19 09:05:56;;;;;;;4.03;3.10;;;;;;;24.77;94.25;101255.03;5037687;28;20083;-87
2023/08/19 09:08:28;;;;;;;4.30;2.90;;;;;;;24.80;93.66;101259.28;5034334;28;20108;-87
2023/08/19 09:11:00;;;;;;;3.00;2.70;;;;;;;24.83;94.36;101280.28;5037989;28;20091;-88
2023/08/19 09:13:26;;;;;;;3.10;2.80;;;;;;;24.88;94.44;101272.88;5042765;28;20020;-89
2023/08/19 09:15:52;;;;;;;2.65;2.45;;;;;;;24.92;95.17;101274.38;5051505;28;20021;-88
2023/08/19 09:18:17;;;;;;;3.07;2.77;;;;;;;24.97;94.43;101279.38;5054664;28;20044;-86
2023/08/19 09:20:44;;;;;;;2.92;2.63;;;;;;;25.04;95.26;101277.13;5054093;28;20138;-86
2023/08/19 09:23:10;;;;;;;2.45;2.25;;;;;;;25.12;94.79;101278.28;5054143;28;20020;-86
2023/08/19 09:25:39;;;;;;;2.70;2.50;;;;;;;25.22;95.03;101283.78;5053552;28;20104;-86
2023/08/19 09:28:05;;;;;;;2.72;2.53;;;;;;;25.33;94.91;101291.00;5042059;28;20052;-86
2023/08/19 09:30:33;;;;;;;2.47;2.28;;;;;;;25.40;94.67;101294.97;5034028;28;20021;-86
2023/08/19 09:33:01;;;;;;;2.85;2.35;;;;;;;25.51;94.71;101298.66;5033432;28;20049;-86
2023/08/19 09:35:37;;;;;;;2.83;2.60;;;;;;;25.60;94.59;101305.97;5034226;28;20017;-86
2023/08/19 09:38:03;;;;;;;;;;;;;;;25.71;94.84;101300.72;5034362;28;20045;-85
2023/08/19 09:40:28;;;;;;;2.92;2.72;;;;;;;25.83;93.89;101301.66;5033298;28;19972;-86
2023/08/19 09:42:58;;;;;;;2.73;2.50;;;;;;;25.95;93.83;101307.88;5034163;28;20093;-86
2023/08/19 09:45:25;;;;;;;2.85;2.65;;;;;;;26.05;93.71;101316.03;5033733;28;20434;-86
2023/08/19 09:47:52;;;;;;;2.67;2.40;;;;;;;26.12;92.67;101313.78;5033041;28;20029;-86
2023/08/19 09:50:19;;;;;;;3.35;2.97;;;;;;;26.23;91.99;101319.16;5033754;28;20041;-86
2023/08/19 09:52:58;;;;;;;3.50;3.00;;;;;;;26.30;92.99;101319.53;5033942;28;20037;-86
2023/08/19 09:55:28;;;;;;;8.57;5.30;;;;;;;26.38;90.19;101332.25;5032870;28;20434;-86
2023/08/19 09:57:54;;;;;;;8.48;5.35;;;;;;;26.39;90.14;101331.31;5034365;28;20030;-86
2023/08/19 10:00:20;;;;;;;7.18;5.18;;;;;;;26.36;90.61;101340.38;5043088;28;20033;-89
2023/08/19 10:02:46;;;;;;;;;;;;;;;26.39;90.35;101342.81;5040924;28;20035;-88
2023/08/19 10:05:11;;;;;;;8.00;5.40;;;;;;;26.39;90.08;101345.47;5043609;28;20304;-86
2023/08/19 10:07:40;;;;;;;7.80;4.80;;;;;;;26.41;90.08;101354.16;5052343;28;20079;-86
2023/08/19 10:10:11;;;;;;;5.00;4.20;;;;;;;26.48;90.25;101352.75;5053001;28;20355;-86
2023/08/19 10:12:40;;;;;;;5.13;4.25;;;;;;;26.52;89.89;101356.88;5053127;28;20025;-86
2023/08/19 10:15:08;;;;;;;4.40;3.70;;;;;;;26.54;90.14;101356.78;5052307;28;20029;-87
2023/08/19 10:17:36;;;;;;;8.05;4.85;;;;;;;26.54;89.15;101355.91;5053210;28;20029;-87
2023/08/19 10:20:11;;;;;;;6.85;4.40;;;;;;;26.51;88.12;101360.50;5053547;28;20029;-87
2023/08/19 10:22:41;;;;;;;7.00;4.53;;;;;;;26.51;88.66;101365.81;5052269;28;20021;-82
2023/08/19 10:25:09;;;;;;;4.60;3.70;;;;;;;26.53;89.68;101368.38;5052253;28;20091;-83
2023/08/19 10:27:35;;;;;;;3.85;3.20;;;;;;;26.57;89.72;101372.50;5053184;28;20020;-83
2023/08/19 10:30:24;;;;;;;3.78;3.30;;;;;;;26.76;89.72;101379.09;5052480;28;20025;-83
2023/08/19 10:32:49;;;;;;;3.35;3.05;;;;;;;26.95;90.26;101375.94;5052824;28;20049;-82
2023/08/19 10:35:16;;;;;;;3.40;3.10;;;;;;;27.13;89.38;101381.66;5052801;28;20083;-82
2023/08/19 10:37:42;;;;;;;3.42;2.88;;;;;;;27.14;87.96;101372.66;5052178;28;20032;-82
2023/08/19 10:40:12;;;;;;;3.20;2.90;;;;;;;27.18;86.26;101375.97;5052893;28;20032;-82
2023/08/19 10:42:38;;;;;;;5.25;3.72;;;;;;;27.21;87.06;101378.38;5052959;28;20487;-82
2023/08/19 10:45:13;;;;;;;;;;;;;;;27.31;83.41;101384.69;5052495;28;20386;-87
2023/08/19 10:47:41;;;;;;;5.32;4.00;;;;;;;27.36;85.83;101400.34;5042568;28;19916;-87
2023/08/19 10:50:10;;;;;;;4.50;3.75;;;;;;;27.35;86.16;101412.78;5051067;28;20132;-88
2023/08/19 10:53:03;;;;;;;4.10;3.40;;;;;;;27.33;87.35;101411.22;5053312;28;20128;-89
2023/08/19 10:55:54;;;;;;;4.15;3.63;;;;;;;27.20;87.03;101420.16;5052863;28;20025;-88
2023/08/19 10:58:21;;;;;;;3.72;3.15;;;;;;;27.07;86.92;101430.94;5051947;28;20016;-88
2023/08/19 11:00:49;;;;;;;3.20;2.90;;;;;;;26.97;86.62;101435.22;5053031;28;20453;-88
2023/08/19 11:03:15;;;;;;;2.72;2.53;;;;;;;26.80;86.49;101439.16;5052580;28;20560;-87
2023/08/19 11:05:51;;;;;;;2.80;2.60;;;;;;;26.65;85.26;101436.69;5052316;28;20107;-88
2023/08/19 11:08:16;;;;;;;3.80;3.10;;;;;;;26.51;86.28;101443.00;5052623;28;20035;-89
2023/08/19 11:10:46;;;;;;;3.20;2.90;;;;;;;26.43;85.83;101439.22;5053175;28;20021;-88
2023/08/19 11:13:15;;;;;;;3.30;3.00;;;;;;;26.39;85.33;101443.06;5052009;28;20079;-88
2023/08/19 11:15:49;;;;;;;3.92;3.30;;;;;;;26.31;86.06;101451.59;5044345;28;20108;-88
2023/08/19 11:18:20;;;;;;;3.88;3.20;;;;;;;26.21;85.19;101467.41;5031678;28;20477;-86
2023/08/19 11:20:46;;;;;;;3.40;2.90;;;;;;;26.11;85.10;101490.28;5034324;28;20026;-87
2023/08/19 11:23:11;;;;;;;3.40;2.70;;;;;;;26.00;85.97;101496.34;5036451;28;20088;-86
2023/08/19 11:25:38;;;;;;;3.30;2.90;;;;;;;25.90;87.07;101490.81;5036552;28;20393;-88
2023/08/19 11:28:04;;;;;;;3.83;3.05;;;;;;;25.87;86.93;101521.13;5036640;28;20033;-87